Time;durP1;ratioP1;P1;durP2;ratioP2;P2;SDS_P1;SDS_P2;PMS_P1;PMS_P2;Temp;Humidity;BMP_temperature;BMP_pressure;BME280_temperature;BME280_humidity;BME280_pressure;Samples;Min_cycle;Max_cycle;Signal;HPM_P1;HPM_P2
2022/03/08 00:00:59;;;;;;;12.10;8.32;;;;;;;0.77;56.94;102300.41;5034496;28;20096;-80
2022/03/08 00:03:24;;;;;;;10.35;7.25;;;;;;;0.72;57.12;102296.13;5034770;28;20033;-80
2022/03/08 00:05:50;;;;;;;10.30;7.50;;;;;;;0.71;57.35;102299.59;5034382;28;20391;-80
2022/03/08 00:08:15;;;;;;;9.95;7.07;;;;;;;0.70;57.26;102302.22;5034620;28;20025;-80
2022/03/08 00:10:40;;;;;;;8.70;6.78;;;;;;;0.66;57.59;102290.09;5035032;28;20503;-80
2022/03/08 00:13:05;;;;;;;8.50;7.20;;;;;;;0.62;57.38;102285.78;5034507;28;20481;-80
2022/03/08 00:15:31;;;;;;;10.98;7.03;;;;;;;0.65;57.44;102297.09;5034178;28;20038;-80
2022/03/08 00:17:57;;;;;;;12.95;7.30;;;;;;;0.62;57.97;102288.41;5034920;28;20040;-81
2022/03/08 00:20:23;;;;;;;10.98;7.35;;;;;;;0.61;57.54;102289.28;5034297;28;20100;-80
2022/03/08 00:22:48;;;;;;;11.88;7.68;;;;;;;0.55;57.98;102280.63;5034357;28;20435;-80
2022/03/08 00:25:15;;;;;;;8.93;7.15;;;;;;;0.53;58.02;102274.56;5034082;28;20049;-80
2022/03/08 00:27:45;;;;;;;9.35;7.90;;;;;;;0.53;57.38;102281.50;5041038;28;20029;-80
2022/03/08 00:30:12;;;;;;;11.20;7.30;;;;;;;0.53;57.74;102285.03;5054278;28;20103;-80
2022/03/08 00:32:37;;;;;;;10.68;7.75;;;;;;;0.50;58.02;102269.38;5034729;28;20040;-80
2022/03/08 00:35:03;;;;;;;10.63;8.05;;;;;;;0.52;57.59;102279.81;5033952;28;20376;-80
2022/03/08 00:37:28;;;;;;;13.95;8.90;;;;;;;0.51;57.85;102284.16;5034116;28;20056;-80
2022/03/08 00:39:54;;;;;;;9.20;7.35;;;;;;;0.50;57.64;102279.81;5041851;28;20093;-80
2022/03/08 00:42:20;;;;;;;9.57;7.22;;;;;;;0.50;57.19;102277.22;5053905;28;20021;-80
2022/03/08 00:44:45;;;;;;;12.68;8.75;;;;;;;0.49;57.85;102278.06;5050557;28;20025;-80
2022/03/08 00:47:11;;;;;;;13.20;7.50;;;;;;;0.48;57.41;102278.09;5033896;28;20388;-80
2022/03/08 00:49:38;;;;;;;11.23;7.65;;;;;;;0.43;57.87;102275.53;5033649;28;20388;-80
2022/03/08 00:52:04;;;;;;;10.70;7.53;;;;;;;0.44;57.59;102276.41;5034195;28;20092;-80
2022/03/08 00:54:30;;;;;;;11.90;7.35;;;;;;;0.42;57.79;102278.16;5033558;28;20388;-80
2022/03/08 00:56:55;;;;;;;10.13;7.60;;;;;;;0.41;57.47;102273.81;5033785;28;20021;-80
2022/03/08 00:59:20;;;;;;;10.25;7.50;;;;;;;0.39;57.61;102281.69;5033673;28;20101;-80
2022/03/08 01:01:46;;;;;;;9.38;7.47;;;;;;;0.37;57.61;102280.84;5033346;28;20492;-80
2022/03/08 01:04:11;;;;;;;12.55;8.15;;;;;;;0.37;57.43;102280.84;5033491;28;20040;-80
2022/03/08 01:06:36;;;;;;;9.00;7.28;;;;;;;0.33;57.20;102279.13;5033426;28;20550;-80
2022/03/08 01:09:03;;;;;;;9.60;7.50;;;;;;;0.32;57.65;102277.41;5050286;28;20392;-79
2022/03/08 01:11:29;;;;;;;10.20;8.00;;;;;;;0.30;57.18;102268.69;5051952;28;20129;-80
2022/03/08 01:13:54;;;;;;;12.57;7.20;;;;;;;0.27;56.97;102269.63;5053046;28;20021;-80
2022/03/08 01:16:20;;;;;;;13.43;7.00;;;;;;;0.31;57.32;102267.81;5052807;28;20082;-80
2022/03/08 01:18:47;;;;;;;8.38;6.90;;;;;;;0.33;57.04;102277.41;5039735;28;20026;-80
2022/03/08 01:21:14;;;;;;;8.30;6.53;;;;;;;0.35;56.86;102275.63;5035041;28;20377;-80
2022/03/08 01:23:40;;;;;;;8.10;6.88;;;;;;;0.36;56.60;102273.88;5053299;28;20032;-79
2022/03/08 01:26:05;;;;;;;10.95;7.22;;;;;;;0.36;56.96;102273.88;5052779;28;20053;-80
2022/03/08 01:28:31;;;;;;;10.02;7.32;;;;;;;0.36;56.93;102268.66;5052957;28;20029;-80
2022/03/08 01:30:56;;;;;;;10.30;6.38;;;;;;;0.34;56.49;102271.28;5040300;28;20029;-80
2022/03/08 01:33:21;;;;;;;10.52;7.10;;;;;;;0.35;56.50;102259.06;5040199;28;20029;-80
2022/03/08 01:35:46;;;;;;;8.48;7.20;;;;;;;0.38;56.33;102263.41;5037805;28;20119;-78
2022/03/08 01:38:12;;;;;;;8.00;6.68;;;;;;;0.35;56.67;102254.72;5033641;28;20021;-80
2022/03/08 01:40:37;;;;;;;11.40;6.72;;;;;;;0.38;56.38;102253.81;5052110;28;20365;-80
2022/03/08 01:43:03;;;;;;;8.90;7.28;;;;;;;0.37;56.65;102249.47;5053309;28;20027;-80
2022/03/08 01:45:28;;;;;;;8.85;7.00;;;;;;;0.38;56.58;102245.09;5034090;28;20029;-80
2022/03/08 01:47:53;;;;;;;8.00;6.90;;;;;;;0.35;56.26;102236.41;5033072;28;20108;-79
2022/03/08 01:50:19;;;;;;;8.55;6.97;;;;;;;0.36;56.48;102238.13;5049013;28;20036;-80
2022/03/08 01:52:45;;;;;;;8.35;6.93;;;;;;;0.35;56.49;102232.94;5052871;28;20408;-80
2022/03/08 01:55:12;;;;;;;8.63;6.90;;;;;;;0.38;56.34;102234.66;5052832;28;20025;-80
2022/03/08 01:57:37;;;;;;;9.13;6.28;;;;;;;0.31;56.03;102220.78;5053065;28;20037;-79
2022/03/08 02:00:06;;;;;;;9.70;6.85;;;;;;;0.33;56.33;102226.84;5052777;28;20031;-79
2022/03/08 02:02:32;;;;;;;8.35;7.10;;;;;;;0.30;56.08;102225.16;5052841;28;20140;-80
2022/03/08 02:04:57;;;;;;;8.93;6.82;;;;;;;0.32;56.11;102220.78;5053176;28;20077;-79
2022/03/08 02:07:23;;;;;;;10.43;7.18;;;;;;;0.33;56.49;102227.75;5036457;28;20032;-80
2022/03/08 02:09:49;;;;;;;9.73;6.72;;;;;;;0.32;56.21;102225.16;5033175;28;20025;-80
2022/03/08 02:12:14;;;;;;;9.80;7.22;;;;;;;0.31;56.01;102224.25;5042074;28;20084;-80
2022/03/08 02:14:41;;;;;;;9.88;7.40;;;;;;;0.31;56.23;102224.25;5057362;28;20036;-79
2022/03/08 02:17:06;;;;;;;9.18;6.88;;;;;;;0.31;56.47;102224.25;5050143;28;20048;-80
2022/03/08 02:19:32;;;;;;;8.50;6.72;;;;;;;0.26;56.10;102213.00;5036548;28;20053;-80
2022/03/08 02:21:57;;;;;;;8.63;6.60;;;;;;;0.29;56.20;102206.88;5036213;28;20029;-80
2022/03/08 02:24:22;;;;;;;9.07;7.55;;;;;;;0.28;56.11;102210.38;5036950;28;20519;-80
2022/03/08 02:26:49;;;;;;;7.68;6.40;;;;;;;0.26;56.07;102215.59;5035815;28;20057;-80
2022/03/08 02:29:15;;;;;;;8.07;7.15;;;;;;;0.24;55.94;102216.53;5036834;28;20043;-80
2022/03/08 02:31:40;;;;;;;8.55;6.88;;;;;;;0.21;56.43;102216.56;5036127;28;20476;-80
2022/03/08 02:34:05;;;;;;;9.50;7.47;;;;;;;0.21;56.40;102209.56;5036154;28;20021;-80
2022/03/08 02:36:31;;;;;;;9.80;6.75;;;;;;;0.21;56.28;102217.41;5037598;28;20055;-80
2022/03/08 02:38:56;;;;;;;8.52;6.60;;;;;;;0.21;56.19;102206.09;5054645;28;20021;-80
2022/03/08 02:41:22;;;;;;;10.13;7.63;;;;;;;0.20;56.45;102196.53;5055875;28;20051;-79
2022/03/08 02:43:48;;;;;;;11.80;7.57;;;;;;;0.19;56.33;102200.91;5055533;28;20032;-80
2022/03/08 02:46:13;;;;;;;11.18;8.43;;;;;;;0.18;56.55;102196.53;5055812;28;20568;-80
2022/03/08 02:48:38;;;;;;;12.20;8.02;;;;;;;0.16;56.47;102190.47;5055432;28;20029;-80
2022/03/08 02:51:04;;;;;;;10.30;7.97;;;;;;;0.13;56.59;102183.56;5055617;28;20086;-80
2022/03/08 02:53:30;;;;;;;13.00;7.65;;;;;;;0.12;56.95;102183.56;5055381;28;20503;-80
2022/03/08 02:55:55;;;;;;;9.32;7.38;;;;;;;0.10;56.69;102185.31;5055677;28;20037;-79
2022/03/08 02:58:20;;;;;;;12.32;7.40;;;;;;;0.08;57.00;102182.72;5055037;28;20037;-80
2022/03/08 03:00:46;;;;;;;12.65;7.55;;;;;;;0.07;56.93;102181.00;5055200;28;20033;-80
2022/03/08 03:03:11;;;;;;;11.85;7.38;;;;;;;0.06;57.07;102178.41;5038274;28;20036;-80
2022/03/08 03:05:37;;;;;;;12.57;8.07;;;;;;;0.03;56.87;102168.84;5036141;28;20115;-80
2022/03/08 03:08:05;;;;;;;11.13;8.05;;;;;;;-0.03;57.24;102156.72;5035325;28;20380;-80
2022/03/08 03:10:31;;;;;;;10.05;7.55;;;;;;;-0.01;57.42;102173.25;5035536;28;20033;-79
2022/03/08 03:12:57;;;;;;;12.57;7.88;;;;;;;-0.02;57.29;102163.69;5035295;28;20422;-80
2022/03/08 03:15:24;;;;;;;12.82;8.05;;;;;;;-0.05;57.20;102160.22;5035962;28;20033;-80
2022/03/08 03:17:50;;;;;;;13.10;7.93;;;;;;;-0.07;57.37;102154.16;5035256;28;20480;-80
2022/03/08 03:20:20;;;;;;;10.70;8.00;;;;;;;-0.09;57.31;102156.78;5044711;28;20043;-80
2022/03/08 03:22:46;;;;;;;10.73;7.53;;;;;;;-0.09;57.66;102148.09;5054971;28;20479;-80
2022/03/08 03:27:47;;;;;;;10.57;7.60;;;;;;;-0.17;57.54;102131.66;5064950;22;20087;-89
2022/03/08 03:30:17;;;;;;;11.73;7.88;;;;;;;-0.25;57.50;102121.28;5076868;28;20040;-89
2022/03/08 03:32:42;;;;;;;11.77;7.43;;;;;;;-0.22;57.96;102127.34;5074695;28;20047;-88
2022/03/08 03:35:09;;;;;;;14.60;8.70;;;;;;;-0.24;57.89;102125.63;5072942;28;20037;-90
2022/03/08 03:37:37;;;;;;;10.98;7.50;;;;;;;-0.24;58.06;102126.47;5069075;28;20031;-90
2022/03/08 03:40:05;;;;;;;14.18;8.32;;;;;;;-0.31;58.07;102118.75;5067331;28;20021;-91
2022/03/08 03:42:30;;;;;;;9.32;7.35;;;;;;;-0.33;58.29;102121.38;5072012;28;20101;-91
2022/03/08 03:44:55;;;;;;;12.35;8.30;;;;;;;-0.30;58.25;102125.69;5068546;28;20033;-91
2022/03/08 03:47:21;;;;;;;14.52;8.45;;;;;;;-0.32;58.45;102127.44;5067187;28;20048;-91
2022/03/08 03:49:46;;;;;;;10.90;8.00;;;;;;;-0.36;58.13;102123.16;5065307;28;20036;-91
2022/03/08 03:52:11;;;;;;;13.60;8.55;;;;;;;-0.35;58.23;102130.97;5058840;28;20438;-91
2022/03/08 03:54:37;;;;;;;10.00;7.38;;;;;;;-0.34;58.37;102137.06;5058841;28;20026;-91
2022/03/08 03:57:03;;;;;;;14.68;8.30;;;;;;;-0.42;58.63;102131.91;5043061;28;20032;-91
2022/03/08 03:59:28;;;;;;;11.50;8.05;;;;;;;-0.41;58.70;102131.03;5046158;28;20044;-91
2022/03/08 04:01:54;;;;;;;11.55;8.18;;;;;;;-0.46;58.23;102118.03;5073083;28;20024;-90
2022/03/08 04:04:19;;;;;;;14.07;8.18;;;;;;;-0.38;58.57;102128.41;5070216;28;20033;-91
2022/03/08 04:06:44;;;;;;;9.57;7.28;;;;;;;-0.48;58.77;102111.97;5066202;28;20029;-91
2022/03/08 04:09:10;;;;;;;13.50;7.55;;;;;;;-0.41;58.63;102123.19;5062601;28;20025;-91
2022/03/08 04:11:35;;;;;;;9.90;7.82;;;;;;;-0.45;58.89;102126.72;5061727;28;20053;-91
2022/03/08 04:14:01;;;;;;;9.85;7.70;;;;;;;-0.43;59.06;102133.66;5062758;28;20120;-91
2022/03/08 04:16:27;;;;;;;11.85;7.68;;;;;;;-0.44;59.15;102131.06;5062421;28;20068;-91
2022/03/08 04:18:52;;;;;;;11.45;7.63;;;;;;;-0.53;59.14;102124.19;5061215;28;20032;-90
2022/03/08 04:21:17;;;;;;;10.50;7.05;;;;;;;-0.50;59.27;102124.16;5059814;28;20025;-91
2022/03/08 04:23:43;;;;;;;9.63;7.50;;;;;;;-0.60;59.13;102112.94;5062025;28;20052;-91
2022/03/08 04:26:08;;;;;;;9.68;7.65;;;;;;;-0.61;59.24;102111.22;5061333;28;20052;-91
2022/03/08 04:28:34;;;;;;;12.25;7.43;;;;;;;-0.54;59.38;102126.81;5061371;28;20098;-91
2022/03/08 04:30:59;;;;;;;11.13;7.80;;;;;;;-0.56;59.32;102129.44;5055879;28;20464;-91
2022/03/08 04:33:24;;;;;;;11.18;7.93;;;;;;;-0.61;59.92;102115.56;5042182;28;20029;-91
2022/03/08 04:35:50;;;;;;;9.60;7.95;;;;;;;-0.59;59.70;102125.09;5044631;28;20112;-91
2022/03/08 04:38:15;;;;;;;12.30;7.50;;;;;;;-0.68;59.53;102116.50;5061504;28;20024;-91
2022/03/08 04:40:43;;;;;;;10.93;8.32;;;;;;;-0.66;59.67;102117.38;5068739;28;20104;-90
2022/03/08 04:43:09;;;;;;;11.15;8.20;;;;;;;-0.70;59.61;102113.91;5058866;28;20124;-90
2022/03/08 04:45:36;;;;;;;10.75;7.90;;;;;;;-0.73;60.02;102119.16;5061324;28;20056;-90
2022/03/08 04:48:02;;;;;;;10.15;7.78;;;;;;;-0.73;59.62;102120.88;5062047;28;20116;-91
2022/03/08 04:50:27;;;;;;;9.80;7.72;;;;;;;-0.73;60.18;102113.06;5062434;28;20020;-91
2022/03/08 04:52:53;;;;;;;8.38;7.22;;;;;;;-0.78;59.95;102113.97;5059942;28;20029;-91
2022/03/08 04:55:19;;;;;;;9.80;7.68;;;;;;;-0.80;60.16;102109.63;5058704;28;20025;-91
2022/03/08 04:57:45;;;;;;;12.13;7.95;;;;;;;-0.76;60.12;102125.25;5060610;28;20079;-90
2022/03/08 05:00:12;;;;;;;9.45;8.20;;;;;;;-0.80;60.11;102117.47;5061786;28;20037;-90
2022/03/08 05:02:39;;;;;;;9.20;7.47;;;;;;;-0.78;60.27;102120.94;5061062;28;20017;-90
2022/03/08 05:05:06;;;;;;;9.15;7.25;;;;;;;-0.79;60.40;102114.00;5063195;28;20060;-90
2022/03/08 05:07:37;;;;;;;10.60;8.10;;;;;;;-0.87;60.73;102108.81;5062150;28;20055;-90
2022/03/08 05:10:04;;;;;;;10.05;7.20;;;;;;;-0.82;60.35;102114.00;5058686;28;20119;-91
2022/03/08 05:12:30;;;;;;;9.10;7.43;;;;;;;-0.86;60.35;102104.50;5060990;28;20033;-91
2022/03/08 05:14:56;;;;;;;9.88;7.50;;;;;;;-0.84;60.55;102105.34;5061173;28;20463;-90
2022/03/08 05:17:21;;;;;;;11.07;8.13;;;;;;;-0.84;60.43;102105.34;5059534;28;20090;-91
2022/03/08 05:19:47;;;;;;;9.77;7.70;;;;;;;-0.86;60.60;102102.75;5059913;28;20029;-91
2022/03/08 05:22:13;;;;;;;10.93;8.23;;;;;;;-0.86;60.60;102097.53;5060186;28;20032;-91
2022/03/08 05:24:38;;;;;;;9.93;7.13;;;;;;;-0.87;60.37;102101.00;5060620;28;20037;-90
2022/03/08 05:27:04;;;;;;;13.05;8.07;;;;;;;-0.90;60.69;102095.81;5060345;28;20053;-90
2022/03/08 05:29:29;;;;;;;11.05;8.23;;;;;;;-0.85;60.96;102106.22;5062100;28;20060;-90
2022/03/08 05:31:54;;;;;;;11.52;7.47;;;;;;;-0.86;60.67;102107.97;5060599;28;20025;-90
2022/03/08 05:34:20;;;;;;;12.13;8.02;;;;;;;-0.85;61.17;102103.59;5063011;28;20172;-90
2022/03/08 05:36:45;;;;;;;15.23;7.72;;;;;;;-0.85;60.78;102106.22;5060092;28;20071;-91
2022/03/08 05:39:14;;;;;;;11.85;8.07;;;;;;;-0.88;60.68;102098.41;5059597;28;20033;-91
2022/03/08 05:41:39;;;;;;;8.88;7.75;;;;;;;-0.90;60.86;102094.94;5059536;28;20039;-91
2022/03/08 05:44:04;;;;;;;9.07;7.07;;;;;;;-0.86;60.79;102097.53;5062879;28;20041;-91
2022/03/08 05:46:30;;;;;;;11.48;8.27;;;;;;;-0.88;61.01;102094.06;5062047;28;20045;-90
2022/03/08 05:48:55;;;;;;;9.73;7.93;;;;;;;-0.90;60.80;102097.56;5064487;28;20044;-91
2022/03/08 05:51:20;;;;;;;9.88;7.25;;;;;;;-0.89;61.15;102104.53;5064572;28;20047;-90
2022/03/08 05:53:46;;;;;;;10.02;7.50;;;;;;;-0.87;61.01;102108.81;5065953;28;20024;-90
2022/03/08 05:56:14;;;;;;;8.57;7.35;;;;;;;-0.89;61.00;102107.97;5066072;28;20031;-90
2022/03/08 05:58:42;;;;;;;12.80;6.93;;;;;;;-0.90;61.59;102105.38;5068556;28;20032;-89
2022/03/08 06:01:07;;;;;;;11.13;8.13;;;;;;;-0.97;61.09;102086.31;5066016;28;20021;-90
2022/03/08 06:03:32;;;;;;;13.40;7.80;;;;;;;-0.94;60.97;102083.69;5068334;28;20379;-90
2022/03/08 06:05:58;;;;;;;10.23;7.90;;;;;;;-0.87;61.03;102093.19;5075163;28;20395;-90
2022/03/08 06:08:23;;;;;;;8.63;7.68;;;;;;;-0.84;60.61;102092.31;5068251;28;20063;-89
2022/03/08 06:10:49;;;;;;;10.73;8.23;;;;;;;-0.89;61.24;102087.13;5066594;28;20036;-90
2022/03/08 06:13:14;;;;;;;11.88;7.07;;;;;;;-0.90;60.86;102082.75;5068364;28;20080;-90
2022/03/08 06:15:39;;;;;;;15.82;8.25;;;;;;;-0.87;61.10;102089.72;5077283;28;20009;-90
2022/03/08 06:18:07;;;;;;;10.23;7.38;;;;;;;-0.85;61.04;102091.44;5076990;28;20017;-90
2022/03/08 06:20:32;;;;;;;10.88;7.40;;;;;;;-0.90;60.92;102079.31;5069719;28;20025;-90
2022/03/08 06:22:58;;;;;;;10.73;7.38;;;;;;;-0.80;60.85;102099.19;5065423;28;20055;-91
2022/03/08 06:25:23;;;;;;;10.48;7.75;;;;;;;-0.79;60.91;102090.50;5066202;28;20024;-90
2022/03/08 06:27:49;;;;;;;10.55;7.40;;;;;;;-0.87;60.94;102079.28;5065515;28;20075;-90
2022/03/08 06:30:14;;;;;;;7.90;7.10;;;;;;;-0.81;60.73;102087.06;5065076;28;20118;-91
2022/03/08 06:32:39;;;;;;;10.02;7.93;;;;;;;-0.80;60.84;102083.56;5071483;28;20021;-90
2022/03/08 06:35:05;;;;;;;12.18;7.32;;;;;;;-0.77;60.64;102086.13;5075674;28;20036;-89
2022/03/08 06:37:31;;;;;;;9.23;6.85;;;;;;;-0.72;60.70;102091.31;5070956;28;20041;-89
2022/03/08 06:39:56;;;;;;;10.88;7.80;;;;;;;-0.73;60.74;102081.75;5068283;28;20120;-90
2022/03/08 06:42:22;;;;;;;12.43;7.85;;;;;;;-0.67;60.23;102087.78;5067526;28;20033;-90
2022/03/08 06:44:47;;;;;;;9.65;7.70;;;;;;;-0.65;60.39;102090.38;5081780;28;20021;-88
2022/03/08 06:47:12;;;;;;;9.57;7.25;;;;;;;-0.70;60.47;102080.00;5064710;28;20114;-89
2022/03/08 06:49:41;;;;;;;11.23;7.40;;;;;;;-0.62;60.59;102093.81;5065536;28;20036;-91
2022/03/08 06:52:08;;;;;;;10.88;7.45;;;;;;;-0.68;60.58;102077.34;5059044;28;20048;-88
2022/03/08 06:54:37;;;;;;;9.98;7.63;;;;;;;-0.56;60.86;102098.97;5058471;28;20024;-89
2022/03/08 06:57:04;;;;;;;8.38;7.43;;;;;;;-0.53;60.20;102095.50;5062757;28;20025;-91
2022/03/08 06:59:29;;;;;;;10.15;7.22;;;;;;;-0.49;60.15;102096.31;5061619;28;20093;-91
2022/03/08 07:01:56;;;;;;;10.60;7.50;;;;;;;-0.43;59.72;102101.47;5078273;28;20079;-89
2022/03/08 07:04:22;;;;;;;11.85;7.95;;;;;;;-0.39;59.62;102084.88;5065427;28;20155;-92
2022/03/08 07:06:47;;;;;;;8.38;7.03;;;;;;;-0.35;59.40;102085.72;5064991;28;20025;-89
2022/03/08 07:09:13;;;;;;;10.23;7.60;;;;;;;-0.26;59.34;102093.47;5060352;28;20086;-88
2022/03/08 07:11:40;;;;;;;9.73;7.20;;;;;;;-0.25;59.50;102087.34;5056463;28;20500;-88
2022/03/08 07:14:06;;;;;;;9.32;7.47;;;;;;;-0.18;58.91;102089.00;5057894;28;20021;-89
2022/03/08 07:16:32;;;;;;;10.30;7.97;;;;;;;-0.22;59.17;102089.91;5054276;28;20118;-89
2022/03/08 07:18:58;;;;;;;8.25;7.25;;;;;;;-0.14;58.38;102095.91;5062946;28;20032;-87
2022/03/08 07:21:24;;;;;;;12.20;7.70;;;;;;;-0.10;58.22;102089.78;5059330;28;20045;-89
2022/03/08 07:23:51;;;;;;;11.35;7.82;;;;;;;-0.03;58.46;102096.66;5058507;28;20475;-89
2022/03/08 07:26:17;;;;;;;9.10;7.03;;;;;;;0.04;57.52;102105.28;5056452;28;20056;-89
2022/03/08 07:28:43;;;;;;;8.30;7.20;;;;;;;0.13;57.55;102107.78;5055439;28;20025;-89
2022/03/08 07:31:12;;;;;;;9.32;7.10;;;;;;;0.12;57.48;102093.00;5055413;28;20095;-90
2022/03/08 07:33:40;;;;;;;10.32;7.97;;;;;;;0.29;57.03;102110.19;5055139;28;20022;-89
2022/03/08 07:36:06;;;;;;;11.25;7.72;;;;;;;0.29;56.77;102092.75;5054882;28;20040;-89
2022/03/08 07:38:31;;;;;;;8.80;7.55;;;;;;;0.34;56.82;102100.53;5059459;28;20021;-87
2022/03/08 07:40:57;;;;;;;8.23;7.38;;;;;;;0.37;56.76;102092.66;5064198;28;20190;-88
2022/03/08 07:43:22;;;;;;;9.20;7.72;;;;;;;0.52;56.19;102108.13;5057569;28;20036;-88
2022/03/08 07:45:48;;;;;;;8.30;7.05;;;;;;;0.53;55.79;102086.34;5054090;28;20045;-88
2022/03/08 07:48:17;;;;;;;10.30;7.30;;;;;;;0.58;55.85;102077.53;5048063;28;20067;-89
2022/03/08 07:50:44;;;;;;;12.05;8.20;;;;;;;0.75;54.89;102080.78;5056827;28;20037;-90
2022/03/08 07:53:09;;;;;;;10.73;7.50;;;;;;;0.88;54.74;102079.69;5058989;28;20021;-88
2022/03/08 07:55:37;;;;;;;9.05;7.20;;;;;;;0.95;53.90;102082.19;5058750;28;20115;-89
2022/03/08 07:58:04;;;;;;;9.68;7.50;;;;;;;1.11;53.88;102086.28;5054046;28;20036;-89
2022/03/08 08:00:32;;;;;;;12.85;7.20;;;;;;;1.18;53.13;102084.41;5053703;28;20479;-89
2022/03/08 08:02:59;;;;;;;9.77;6.57;;;;;;;1.37;53.53;102096.28;5054675;28;20040;-87
2022/03/08 08:05:25;;;;;;;8.13;6.88;;;;;;;1.46;52.72;102087.41;5059465;28;20041;-90
2022/03/08 08:07:50;;;;;;;7.90;6.60;;;;;;;1.61;52.55;102091.50;5054128;28;20087;-89
2022/03/08 08:10:16;;;;;;;8.10;6.50;;;;;;;1.75;50.99;102089.47;5054092;28;20028;-90
2022/03/08 08:12:45;;;;;;;11.55;6.85;;;;;;;1.85;51.68;102080.53;5053419;28;20032;-89
2022/03/08 08:15:14;;;;;;;8.90;6.63;;;;;;;2.06;50.61;102082.75;5052762;28;20029;-89
2022/03/08 08:17:39;;;;;;;11.07;6.57;;;;;;;2.22;50.40;102089.38;5051999;28;20438;-89
2022/03/08 08:20:08;;;;;;;8.43;6.78;;;;;;;2.38;49.94;102087.28;5051667;28;20119;-90
2022/03/08 08:22:40;;;;;;;8.18;6.45;;;;;;;2.55;49.84;102076.44;5055636;28;20492;-90
2022/03/08 08:25:10;;;;;;;9.75;6.88;;;;;;;2.74;49.25;102077.69;5055573;28;20723;-89
2022/03/08 08:27:37;;;;;;;8.80;6.82;;;;;;;3.00;48.82;102091.06;5056040;28;20076;-89
2022/03/08 08:30:04;;;;;;;9.95;6.07;;;;;;;3.20;47.85;102094.06;5056571;28;20120;-89
2022/03/08 08:32:29;;;;;;;9.05;7.28;;;;;;;3.40;48.11;102090.03;5063869;28;20082;-89
2022/03/08 08:34:55;;;;;;;12.95;6.85;;;;;;;3.54;47.06;102084.44;5061411;28;20029;-87
2022/03/08 08:37:20;;;;;;;6.78;6.07;;;;;;;3.70;46.36;102086.59;5055986;28;20379;-86
2022/03/08 08:39:45;;;;;;;7.88;6.80;;;;;;;3.84;45.88;102088.84;5057411;28;20458;-86
2022/03/08 08:42:10;;;;;;;7.80;6.22;;;;;;;3.96;46.05;102081.50;5057953;28;20025;-89
2022/03/08 08:44:36;;;;;;;8.50;6.55;;;;;;;4.06;45.14;102075.94;5057421;28;20361;-89
2022/03/08 08:47:01;;;;;;;10.30;6.50;;;;;;;4.22;45.02;102068.44;5055340;28;20021;-88
2022/03/08 08:49:28;;;;;;;8.00;6.03;;;;;;;4.37;44.19;102071.53;5055485;28;20021;-89
2022/03/08 08:51:55;;;;;;;7.63;6.18;;;;;;;4.50;44.20;102051.81;5055688;28;20035;-89
2022/03/08 08:54:21;;;;;;;5.93;5.38;;;;;;;4.67;43.28;102068.84;5055815;28;20027;-89
2022/03/08 08:56:46;;;;;;;8.02;6.05;;;;;;;4.81;43.19;102067.50;5051406;28;20115;-89
2022/03/08 08:59:11;;;;;;;7.78;6.22;;;;;;;5.03;42.65;102077.31;5055067;28;20063;-89
2022/03/08 09:01:37;;;;;;;8.45;5.65;;;;;;;5.16;42.88;102077.72;5036896;28;20033;-88
2022/03/08 09:04:03;;;;;;;6.75;6.05;;;;;;;5.25;42.06;102071.31;5041761;28;20041;-89
2022/03/08 09:06:31;;;;;;;8.43;6.13;;;;;;;5.34;41.61;102074.47;5053399;28;20037;-88
2022/03/08 09:08:57;;;;;;;7.63;6.28;;;;;;;5.43;41.16;102067.16;5071016;28;20021;-88
2022/03/08 09:11:30;;;;;;;8.63;5.70;;;;;;;5.52;41.43;102064.19;5054271;28;20071;-90
2022/03/08 09:13:59;;;;;;;6.40;5.70;;;;;;;5.63;40.31;102063.81;5058153;28;20139;-89
2022/03/08 09:16:28;;;;;;;7.63;5.43;;;;;;;5.75;40.13;102080.03;5080931;28;20348;-88
2022/03/08 09:18:56;;;;;;;6.60;5.43;;;;;;;5.79;39.80;102061.47;5076583;28;20052;-89
2022/03/08 09:21:22;;;;;;;7.78;5.70;;;;;;;5.87;39.52;102059.41;5040172;28;20460;-89
2022/03/08 09:23:47;;;;;;;9.27;5.45;;;;;;;5.93;39.13;102056.56;5065507;28;20027;-88
2022/03/08 09:26:16;;;;;;;7.13;5.93;;;;;;;5.93;39.51;102049.50;5070445;28;20049;-89
2022/03/08 09:28:44;;;;;;;7.13;5.63;;;;;;;6.05;39.12;102042.09;5061183;28;20079;-88
2022/03/08 09:31:09;;;;;;;11.20;5.65;;;;;;;6.18;39.76;102047.72;5068951;28;20062;-88
2022/03/08 09:33:38;;;;;;;10.02;6.63;;;;;;;6.39;39.12;102048.66;5073739;28;20031;-88
2022/03/08 09:36:04;;;;;;;10.60;5.90;;;;;;;6.54;38.61;102039.28;5060339;28;20037;-90
2022/03/08 09:38:29;;;;;;;10.02;5.28;;;;;;;6.65;37.80;102032.63;5054519;28;20033;-89
2022/03/08 09:40:54;;;;;;;8.48;5.50;;;;;;;6.91;38.05;102032.47;5053930;28;20662;-89
2022/03/08 09:43:20;;;;;;;6.82;5.20;;;;;;;7.10;37.46;102016.72;5065182;28;20045;-88
2022/03/08 09:45:46;;;;;;;6.63;5.47;;;;;;;7.35;36.74;102027.91;5075854;28;20020;-88
2022/03/08 09:48:16;;;;;;;8.60;5.53;;;;;;;7.42;36.83;102020.56;5076523;28;20088;-88
2022/03/08 09:50:43;;;;;;;6.53;5.55;;;;;;;7.61;36.48;102025.91;5065570;28;20033;-88
2022/03/08 09:53:14;;;;;;;7.60;5.25;;;;;;;7.56;35.24;102039.34;5060982;28;20037;-88
2022/03/08 09:55:39;;;;;;;7.95;5.00;;;;;;;7.44;35.73;102021.34;5061878;28;20032;-86
2022/03/08 09:58:05;;;;;;;12.18;5.25;;;;;;;7.45;35.15;102031.03;5062766;28;20065;-88
2022/03/08 10:00:32;;;;;;;6.07;4.80;;;;;;;7.49;35.61;102019.38;5056722;28;20060;-88
2022/03/08 10:02:58;;;;;;;8.27;5.35;;;;;;;7.80;35.84;102011.84;5053946;28;20444;-88
2022/03/08 10:05:28;;;;;;;7.70;5.07;;;;;;;7.98;35.12;102021.56;5054061;28;20104;-89
2022/03/08 10:08:13;;;;;;;5.97;5.05;;;;;;;8.03;34.80;102022.22;5053269;28;20021;-89
2022/03/08 10:10:46;;;;;;;6.97;5.32;;;;;;;8.03;34.80;102016.06;5056333;28;20088;-91
2022/03/08 10:13:13;;;;;;;6.65;5.35;;;;;;;8.03;34.63;102006.34;5056750;28;20029;-89
2022/03/08 10:15:38;;;;;;;8.55;5.35;;;;;;;8.01;34.08;102002.91;5054104;28;20059;-89
2022/03/08 10:18:04;;;;;;;5.78;5.00;;;;;;;8.14;34.50;102006.69;5054861;28;20025;-90
2022/03/08 10:20:32;;;;;;;9.48;5.30;;;;;;;8.24;33.99;101999.13;5055206;28;20021;-91
2022/03/08 10:22:59;;;;;;;8.02;5.07;;;;;;;8.31;34.15;102010.28;5039234;28;20455;-91
2022/03/08 10:25:28;;;;;;;6.72;5.25;;;;;;;8.26;34.01;102007.00;5037800;28;20025;-91
2022/03/08 10:27:54;;;;;;;7.65;5.75;;;;;;;8.29;34.12;102009.50;5055485;28;20053;-90
2022/03/08 10:30:24;;;;;;;7.20;5.80;;;;;;;8.28;34.24;102000.72;5054474;28;20083;-90
2022/03/08 10:32:51;;;;;;;7.13;5.60;;;;;;;8.50;34.40;102007.66;5055183;28;20268;-91
2022/03/08 10:35:27;;;;;;;6.40;5.38;;;;;;;8.73;34.73;102006.50;5061220;28;20025;-90
2022/03/08 10:37:57;;;;;;;5.78;5.18;;;;;;;8.92;33.58;102003.78;5067893;28;20013;-91
2022/03/08 10:40:30;;;;;;;7.57;5.60;;;;;;;8.98;33.46;101989.38;5059257;28;20395;-90
2022/03/08 10:43:04;;;;;;;11.40;5.47;;;;;;;9.02;33.44;101994.41;5058178;28;20093;-91
2022/03/08 10:45:32;;;;;;;5.75;4.82;;;;;;;9.04;33.24;101995.22;5054872;28;20098;-91
2022/03/08 10:47:57;;;;;;;7.45;4.97;;;;;;;9.14;32.82;101986.78;5057251;28;20036;-91
2022/03/08 10:50:44;;;;;;;9.88;5.18;;;;;;;9.09;32.46;101973.75;5053859;28;20120;-90
2022/03/08 10:53:11;;;;;;;6.93;5.50;;;;;;;9.19;32.62;101984.72;5057829;28;20039;-91
2022/03/08 10:55:45;;;;;;;8.68;5.20;;;;;;;9.17;32.83;101976.84;5057088;28;20028;-90
2022/03/08 10:58:16;;;;;;;9.05;5.35;;;;;;;9.40;33.18;101975.66;5058985;28;20078;-90
2022/03/08 11:00:47;;;;;;;8.60;5.28;;;;;;;9.53;32.61;101972.34;5059589;28;20025;-90
2022/03/08 11:03:22;;;;;;;6.38;5.13;;;;;;;9.55;32.22;101973.97;5042429;28;20040;-91
2022/03/08 11:05:55;;;;;;;10.75;5.60;;;;;;;9.55;32.07;101965.16;5051578;28;20068;-89
2022/03/08 11:08:21;;;;;;;8.90;5.00;;;;;;;9.62;31.88;101971.84;5062661;28;20028;-89
2022/03/08 11:10:50;;;;;;;8.07;5.55;;;;;;;9.65;31.94;101978.78;5068185;28;20112;-88
2022/03/08 11:13:17;;;;;;;8.02;5.32;;;;;;;9.65;31.96;101978.78;5068260;28;20032;-88
2022/03/08 11:15:46;;;;;;;9.23;5.78;;;;;;;9.72;32.12;101965.06;5077935;28;20037;-88
2022/03/08 11:18:13;;;;;;;5.78;5.10;;;;;;;9.76;31.10;101963.13;5055523;28;20103;-87
2022/03/08 11:20:41;;;;;;;7.43;5.15;;;;;;;9.67;30.99;101977.75;5055810;28;20033;-88
2022/03/08 11:23:07;;;;;;;7.57;5.00;;;;;;;9.58;32.16;101957.03;5056956;28;20048;-87
2022/03/08 11:25:44;;;;;;;7.35;5.20;;;;;;;9.79;32.31;101969.13;5055827;28;20025;-87